createdAt,value
2023-05-01T00:01:28.845Z,9.96
2023-05-01T00:03:56.247Z,9.54
2023-05-01T00:06:23.160Z,9.39
2023-05-01T00:08:49.951Z,9.77
2023-05-01T00:11:16.635Z,9.66
2023-05-01T00:13:43.354Z,9.74
2023-05-01T00:16:10.490Z,9.78
2023-05-01T00:18:38.991Z,9.75
2023-05-01T00:21:05.907Z,9.92
2023-05-01T00:23:32.574Z,10.08
2023-05-01T00:25:59.242Z,10.17
2023-05-01T00:28:25.912Z,10.26
2023-05-01T00:30:52.696Z,10.33
2023-05-01T00:33:19.585Z,10.26
2023-05-01T00:35:47.795Z,10.38
2023-05-01T00:38:14.611Z,10.18
2023-05-01T00:40:44.655Z,10.27
2023-05-01T00:43:12.109Z,9.98
2023-05-01T00:45:38.932Z,10.17
2023-05-01T00:48:06.229Z,10.37
2023-05-01T00:50:33.334Z,10.43
2023-05-01T00:53:02.180Z,10.47
2023-05-01T00:55:29.103Z,10.52
2023-05-01T00:57:56.350Z,10.56
2023-05-01T01:00:24.802Z,10.60
2023-05-01T01:02:52.205Z,10.63
2023-05-01T01:05:21.866Z,10.68
2023-05-01T01:07:52.009Z,10.65
2023-05-01T01:10:23.574Z,10.18
2023-05-01T01:12:55.023Z,10.38
2023-05-01T01:15:28.343Z,10.54
2023-05-01T01:17:59.001Z,10.51
2023-05-01T01:20:31.298Z,10.31
2023-05-01T01:23:02.198Z,10.56
2023-05-01T01:25:47.017Z,10.66
2023-05-01T01:28:34.582Z,10.41
2023-05-01T01:31:09.578Z,9.79
2023-05-01T01:33:57.371Z,10.14
2023-05-01T01:36:31.446Z,10.51
2023-05-01T01:39:01.160Z,10.65
2023-05-01T01:41:30.787Z,10.57
2023-05-01T01:44:01.462Z,10.60
2023-05-01T01:46:28.844Z,10.79
2023-05-01T01:48:56.400Z,10.89
2023-05-01T01:51:25.252Z,10.84
2023-05-01T01:53:54.210Z,10.90
2023-05-01T01:56:22.943Z,11.01
2023-05-01T01:58:51.777Z,11.10
2023-05-01T02:01:19.741Z,11.15
2023-05-01T02:03:47.425Z,11.15
2023-05-01T02:06:15.459Z,11.16
2023-05-01T02:08:42.754Z,11.17
2023-05-01T02:11:11.355Z,10.92
2023-05-01T02:13:39.271Z,11.07
2023-05-01T02:16:06.836Z,11.15
2023-05-01T02:18:34.495Z,11.10
2023-05-01T02:21:01.711Z,11.15
2023-05-01T02:23:28.633Z,11.19
2023-05-01T02:25:56.869Z,11.20
2023-05-01T02:28:27.049Z,11.22
2023-05-01T02:30:53.845Z,11.21
2023-05-01T02:33:20.551Z,11.14
2023-05-01T02:35:47.631Z,11.15
2023-05-01T02:38:17.056Z,11.17
2023-05-01T02:40:45.606Z,11.09
2023-05-01T02:43:13.828Z,11.03
2023-05-01T02:45:43.040Z,11.07
2023-05-01T02:48:11.124Z,11.11
2023-05-01T02:50:40.674Z,10.89
2023-05-01T02:53:08.265Z,10.72
2023-05-01T02:55:46.628Z,10.82
2023-05-01T02:58:17.105Z,11.02
2023-05-01T03:00:46.060Z,11.09
2023-05-01T03:03:12.896Z,10.89
2023-05-01T03:05:39.686Z,10.63
2023-05-01T03:08:06.846Z,10.58
2023-05-01T03:10:33.831Z,10.62
2023-05-01T03:13:01.151Z,10.61
2023-05-01T03:15:27.791Z,10.48
2023-05-01T03:17:56.004Z,10.39
2023-05-01T03:20:22.752Z,10.64
2023-05-01T03:22:49.964Z,10.88
2023-05-01T03:25:16.750Z,10.81
2023-05-01T03:27:43.469Z,10.87
2023-05-01T03:30:10.730Z,10.99
2023-05-01T03:32:40.779Z,10.54
2023-05-01T03:35:15.645Z,10.25
2023-05-01T03:37:42.459Z,10.28
2023-05-01T03:40:10.417Z,10.33
2023-05-01T03:42:55.780Z,10.41
2023-05-01T03:45:23.791Z,10.58
2023-05-01T03:47:50.640Z,10.85
2023-05-01T03:50:19.072Z,10.95
2023-05-01T03:52:50.589Z,10.74
2023-05-01T03:55:17.783Z,10.81
2023-05-01T03:57:47.462Z,10.96
2023-05-01T04:00:14.349Z,11.00
2023-05-01T04:02:45.485Z,10.97
2023-05-01T04:05:18.285Z,10.85
2023-05-01T04:07:54.411Z,10.46
2023-05-01T04:10:21.110Z,10.67
2023-05-01T04:12:56.256Z,10.76
2023-05-01T04:15:22.977Z,10.81
2023-05-01T04:17:52.838Z,10.86
2023-05-01T04:20:20.367Z,10.89
2023-05-01T04:22:48.126Z,10.81
2023-05-01T04:25:16.431Z,10.71
2023-05-01T04:27:44.770Z,10.59
2023-05-01T04:30:12.772Z,10.61
2023-05-01T04:32:39.650Z,10.65
2023-05-01T04:35:06.966Z,10.63
2023-05-01T04:37:35.579Z,10.54
2023-05-01T04:40:03.425Z,10.47
2023-05-01T04:42:32.359Z,10.23
2023-05-01T04:45:02.747Z,9.98
2023-05-01T04:47:32.530Z,9.93
2023-05-01T04:49:59.204Z,10.06
2023-05-01T04:52:26.411Z,10.32
2023-05-01T04:54:58.029Z,10.28
2023-05-01T04:57:27.183Z,10.38
2023-05-01T04:59:55.612Z,10.42
2023-05-01T05:02:23.552Z,10.58
2023-05-01T05:04:51.046Z,10.64
2023-05-01T05:07:17.832Z,10.64
2023-05-01T05:10:14.045Z,10.72
2023-05-01T05:12:45.417Z,11.13
2023-05-01T05:15:13.552Z,11.45
2023-05-01T05:17:40.285Z,11.61
2023-05-01T05:20:08.654Z,11.73
2023-05-01T05:22:36.225Z,11.86
2023-05-01T05:25:28.868Z,11.91
2023-05-01T05:27:55.679Z,12.24
2023-05-01T05:30:23.692Z,12.33
2023-05-01T05:32:50.565Z,12.61
2023-05-01T05:35:17.589Z,13.89
2023-05-01T05:37:46.088Z,15.56
2023-05-01T05:40:13.315Z,16.76
2023-05-01T05:42:51.047Z,16.71
2023-05-01T05:45:17.900Z,16.69
2023-05-01T05:47:46.056Z,16.02
2023-05-01T05:50:12.994Z,15.18
2023-05-01T05:52:40.453Z,14.70
2023-05-01T05:55:08.409Z,14.46
2023-05-01T05:57:37.703Z,14.36
2023-05-01T06:00:06.950Z,14.26
2023-05-01T06:02:39.039Z,14.07
2023-05-01T06:05:10.327Z,14.30
2023-05-01T06:07:37.754Z,14.65
2023-05-01T06:10:05.462Z,14.91
2023-05-01T06:12:33.450Z,15.64
2023-05-01T06:15:03.096Z,16.26
2023-05-01T06:17:30.815Z,16.55
2023-05-01T06:19:57.941Z,16.73
2023-05-01T06:22:26.254Z,17.05
2023-05-01T06:25:04.253Z,17.61
2023-05-01T06:27:31.358Z,17.45
2023-05-01T06:29:58.187Z,17.06
2023-05-01T06:32:25.017Z,16.54
2023-05-01T06:34:52.360Z,16.63
2023-05-01T06:37:19.374Z,16.51
2023-05-01T06:39:47.935Z,16.66
2023-05-01T06:42:16.222Z,16.91
2023-05-01T06:44:42.882Z,16.96
2023-05-01T06:47:10.164Z,16.94
2023-05-01T06:49:37.005Z,17.00
2023-05-01T06:52:03.830Z,16.84
2023-05-01T06:54:31.136Z,16.54
2023-05-01T06:56:59.231Z,16.63
2023-05-01T06:59:25.845Z,16.78
2023-05-01T07:01:52.751Z,17.30
2023-05-01T07:04:19.430Z,17.45
2023-05-01T07:06:46.104Z,17.51
2023-05-01T07:09:13.965Z,17.55
2023-05-01T07:11:40.700Z,17.46
2023-05-01T07:14:08.744Z,16.78
2023-05-01T07:16:35.585Z,16.96
2023-05-01T07:19:02.184Z,17.19
2023-05-01T07:21:28.831Z,17.21
2023-05-01T07:23:55.495Z,17.43
2023-05-01T07:26:22.134Z,17.55
2023-05-01T07:28:48.809Z,17.23
2023-05-01T07:31:17.062Z,17.39
2023-05-01T07:33:44.785Z,16.72
2023-05-01T07:36:11.886Z,16.39
2023-05-01T07:38:38.549Z,16.22
2023-05-01T07:41:05.512Z,16.04
2023-05-01T07:43:32.152Z,15.76
2023-05-01T07:46:00.389Z,16.27
2023-05-01T07:48:28.659Z,16.33
2023-05-01T07:50:57.021Z,16.86
2023-05-01T07:53:24.190Z,16.98
2023-05-01T07:55:51.000Z,16.98
2023-05-01T07:58:17.763Z,17.19
2023-05-01T08:00:47.362Z,17.14
2023-05-01T08:03:14.309Z,16.70
2023-05-01T08:05:42.720Z,17.55
2023-05-01T08:08:09.856Z,18.02
2023-05-01T08:10:36.743Z,17.64
2023-05-01T08:13:03.675Z,18.16
2023-05-01T08:15:30.721Z,17.96
2023-05-01T08:17:57.446Z,18.45
2023-05-01T08:20:24.234Z,18.62
2023-05-01T08:22:52.280Z,19.21
2023-05-01T08:25:19.239Z,19.29
2023-05-01T08:27:46.069Z,18.97
2023-05-01T08:30:12.892Z,19.34
2023-05-01T08:32:39.600Z,19.39
2023-05-01T08:35:06.614Z,19.54
2023-05-01T08:37:33.236Z,19.73
2023-05-01T08:40:03.698Z,19.86
2023-05-01T08:42:32.262Z,19.61
2023-05-01T08:44:59.504Z,19.19
2023-05-01T08:47:26.835Z,19.67
2023-05-01T08:49:54.519Z,19.16
2023-05-01T08:52:21.921Z,19.41
2023-05-01T08:54:50.043Z,20.02
2023-05-01T08:57:18.273Z,20.36
2023-05-01T08:59:46.169Z,20.32
2023-05-01T09:02:15.447Z,20.24
2023-05-01T09:04:42.193Z,20.24
2023-05-01T09:07:09.760Z,20.57
2023-05-01T09:09:37.035Z,20.74
2023-05-01T09:12:08.878Z,20.64
2023-05-01T09:14:37.162Z,21.10
2023-05-01T09:17:03.896Z,21.73
2023-05-01T09:19:30.558Z,22.26
2023-05-01T09:21:57.209Z,22.80
2023-05-01T09:24:25.561Z,22.37
2023-05-01T09:26:52.462Z,22.10
2023-05-01T09:29:39.801Z,22.21
2023-05-01T09:32:17.139Z,22.12
2023-05-01T09:34:44.810Z,22.56
2023-05-01T09:37:13.765Z,23.38
2023-05-01T09:39:40.773Z,23.55
2023-05-01T09:42:07.736Z,24.03
2023-05-01T09:44:43.256Z,23.88
2023-05-01T09:47:10.211Z,23.48
2023-05-01T09:49:44.744Z,23.25
2023-05-01T09:52:11.438Z,22.99
2023-05-01T09:54:38.029Z,22.86
2023-05-01T09:57:05.097Z,22.65
2023-05-01T09:59:34.362Z,22.62
2023-05-01T10:02:02.527Z,22.32
2023-05-01T10:04:32.795Z,21.58
2023-05-01T10:07:00.757Z,21.93
2023-05-01T10:09:28.104Z,22.16
2023-05-01T10:11:56.241Z,21.85
2023-05-01T10:14:25.155Z,21.86
2023-05-01T10:16:54.739Z,21.07
2023-05-01T10:19:23.156Z,20.90
2023-05-01T10:21:49.987Z,22.34
2023-05-01T10:24:17.291Z,23.59
2023-05-01T10:26:44.866Z,24.07
2023-05-01T10:29:12.380Z,23.27
2023-05-01T10:31:41.475Z,23.13
2023-05-01T10:34:09.297Z,23.92
2023-05-01T10:36:39.857Z,23.82
2023-05-01T10:39:07.182Z,23.31
2023-05-01T10:41:52.693Z,22.55
2023-05-01T10:44:23.327Z,23.12
2023-05-01T10:46:50.230Z,22.85
2023-05-01T10:49:17.230Z,22.78
2023-05-01T10:52:08.036Z,22.42
2023-05-01T10:54:36.454Z,21.82
2023-05-01T10:57:03.336Z,22.10
2023-05-01T11:00:04.247Z,21.95
2023-05-01T11:02:31.039Z,21.45
2023-05-01T11:04:57.903Z,21.05
2023-05-01T11:07:25.479Z,21.11
2023-05-01T11:10:01.848Z,21.02
2023-05-01T11:12:47.412Z,21.06
2023-05-01T11:15:25.200Z,21.20
2023-05-01T11:17:52.611Z,21.18
2023-05-01T11:20:38.128Z,20.99
2023-05-01T11:23:04.854Z,21.30
2023-05-01T11:25:33.996Z,21.63
2023-05-01T11:28:01.929Z,21.90
2023-05-01T11:30:37.466Z,22.15
2023-05-01T11:33:05.680Z,22.03
2023-05-01T11:35:32.965Z,22.00
2023-05-01T11:37:59.596Z,22.59
2023-05-01T11:40:26.906Z,22.74
2023-05-01T11:43:02.301Z,22.53
2023-05-01T11:45:29.282Z,22.98
2023-05-01T11:47:56.385Z,23.61
2023-05-01T11:50:31.796Z,23.64
2023-05-01T11:52:58.559Z,23.91
2023-05-01T11:55:31.249Z,24.16
2023-05-01T11:57:58.014Z,23.36
2023-05-01T12:00:30.005Z,22.50
2023-05-01T12:02:58.052Z,21.96
2023-05-01T12:05:25.004Z,22.15
2023-05-01T12:07:51.736Z,22.10
2023-05-01T12:10:18.595Z,22.13
2023-05-01T12:12:45.456Z,22.03
2023-05-01T12:15:12.119Z,22.09
2023-05-01T12:17:40.399Z,21.90
2023-05-01T12:20:08.740Z,21.68
2023-05-01T12:22:35.814Z,21.96
2023-05-01T12:25:03.510Z,22.16
2023-05-01T12:27:30.384Z,21.42
2023-05-01T12:29:57.137Z,21.62
2023-05-01T12:32:29.727Z,22.08
2023-05-01T12:34:58.047Z,22.41
2023-05-01T12:37:29.931Z,23.70
2023-05-01T12:39:57.418Z,24.22
2023-05-01T12:42:24.151Z,24.16
2023-05-01T12:44:59.233Z,23.96
2023-05-01T12:47:26.794Z,23.42
2023-05-01T12:50:02.442Z,23.12
2023-05-01T12:52:29.126Z,22.65
2023-05-01T12:55:01.913Z,22.54
2023-05-01T12:57:28.715Z,22.24
2023-05-01T12:59:59.167Z,22.03
2023-05-01T13:02:29.977Z,21.56
2023-05-01T13:05:06.811Z,21.15
2023-05-01T13:07:33.713Z,21.23
2023-05-01T13:10:00.897Z,21.51
2023-05-01T13:12:28.322Z,21.03
2023-05-01T13:14:55.270Z,21.26
2023-05-01T13:17:22.944Z,20.86
2023-05-01T13:19:54.461Z,21.78
2023-05-01T13:22:29.384Z,22.00
2023-05-01T13:24:56.106Z,21.82
2023-05-01T13:27:23.752Z,21.57
2023-05-01T13:29:52.990Z,20.96
2023-05-01T13:32:19.640Z,20.36
2023-05-01T13:34:46.514Z,20.14
2023-05-01T13:37:13.941Z,20.05
2023-05-01T13:39:42.955Z,20.12
2023-05-01T13:42:11.421Z,20.26
2023-05-01T13:44:43.495Z,20.42
2023-05-01T13:47:11.552Z,20.54
2023-05-01T13:49:40.535Z,20.55
2023-05-01T13:52:07.698Z,20.59
2023-05-01T13:54:39.378Z,20.65
2023-05-01T13:57:07.413Z,20.55
2023-05-01T13:59:39.197Z,20.58
2023-05-01T14:02:13.473Z,20.77
2023-05-01T14:04:40.911Z,20.53
2023-05-01T14:07:07.582Z,20.89
2023-05-01T14:09:35.717Z,21.04
2023-05-01T14:12:02.420Z,20.89
2023-05-01T14:14:30.571Z,21.13
2023-05-01T14:16:57.353Z,21.04
2023-05-01T14:19:24.518Z,21.20
2023-05-01T14:21:51.170Z,21.11
2023-05-01T14:24:18.323Z,21.42
2023-05-01T14:26:45.644Z,21.29
2023-05-01T14:29:21.064Z,21.15
2023-05-01T14:31:49.418Z,20.77
2023-05-01T14:34:17.602Z,20.54
2023-05-01T14:36:44.461Z,20.27
2023-05-01T14:39:11.917Z,20.11
2023-05-01T14:41:40.692Z,19.92
2023-05-01T14:44:11.177Z,20.05
2023-05-01T14:46:43.071Z,20.66
2023-05-01T14:49:11.675Z,21.15
2023-05-01T14:51:41.030Z,21.30
2023-05-01T14:54:09.444Z,20.97
2023-05-01T14:56:36.045Z,20.50
2023-05-01T14:59:02.935Z,20.46
2023-05-01T15:01:29.747Z,20.61
2023-05-01T15:03:56.672Z,20.83
2023-05-01T15:06:25.098Z,20.79
2023-05-01T15:08:51.871Z,20.64
2023-05-01T15:11:18.846Z,20.71
2023-05-01T15:13:46.136Z,20.70
2023-05-01T15:16:12.810Z,20.59
2023-05-01T15:18:39.473Z,20.37
2023-05-01T15:21:06.324Z,20.33
2023-05-01T15:23:34.596Z,20.54
2023-05-01T15:26:01.702Z,20.66
2023-05-01T15:28:28.909Z,20.72
2023-05-01T15:30:56.241Z,20.89
2023-05-01T15:33:22.921Z,20.94
2023-05-01T15:35:51.152Z,20.89
2023-05-01T15:38:17.938Z,20.75
2023-05-01T15:40:46.207Z,20.74
2023-05-01T15:43:12.983Z,20.17
2023-05-01T15:45:43.244Z,20.53
2023-05-01T15:48:11.204Z,20.54
2023-05-01T15:50:37.970Z,20.42
2023-05-01T15:53:04.794Z,20.40
2023-05-01T15:55:31.559Z,20.03
2023-05-01T15:57:59.655Z,20.12
2023-05-01T16:00:26.490Z,20.04
2023-05-01T16:02:53.385Z,19.65
2023-05-01T16:05:24.880Z,19.40
2023-05-01T16:07:53.658Z,19.12
2023-05-01T16:10:20.604Z,18.90
2023-05-01T16:12:47.257Z,18.82
2023-05-01T16:15:15.381Z,18.56
2023-05-01T16:17:43.684Z,18.43
2023-05-01T16:20:11.319Z,17.74
2023-05-01T16:22:38.391Z,17.76
2023-05-01T16:25:05.991Z,17.52
2023-05-01T16:27:32.689Z,17.54
2023-05-01T16:29:59.609Z,17.14
2023-05-01T16:32:28.002Z,16.93
2023-05-01T16:34:54.736Z,16.77
2023-05-01T16:37:22.594Z,16.64
2023-05-01T16:39:49.600Z,16.53
2023-05-01T16:42:16.213Z,16.37
2023-05-01T16:44:42.843Z,16.13
2023-05-01T16:47:11.497Z,15.51
2023-05-01T16:49:40.812Z,15.34
2023-05-01T16:52:07.514Z,14.46
2023-05-01T16:54:36.202Z,14.09
2023-05-01T16:57:05.867Z,14.02
2023-05-01T16:59:32.731Z,13.99
2023-05-01T17:01:59.432Z,13.99
2023-05-01T17:04:26.330Z,13.71
2023-05-01T17:06:56.126Z,13.61
2023-05-01T17:09:23.033Z,13.36
2023-05-01T17:11:57.504Z,13.73
2023-05-01T17:14:24.277Z,14.12
2023-05-01T17:16:51.037Z,14.36
2023-05-01T17:19:17.822Z,14.21
2023-05-01T17:21:44.533Z,14.38
2023-05-01T17:24:14.080Z,14.70
2023-05-01T17:26:40.839Z,15.17
2023-05-01T17:29:07.478Z,15.55
2023-05-01T17:31:34.516Z,15.33
2023-05-01T17:34:01.236Z,15.35
2023-05-01T17:36:29.167Z,15.11
2023-05-01T17:38:56.306Z,14.73
2023-05-01T17:41:24.836Z,15.21
2023-05-01T17:43:51.663Z,15.57
2023-05-01T17:46:18.592Z,15.71
2023-05-01T17:48:45.313Z,15.87
2023-05-01T17:51:14.820Z,15.92
2023-05-01T17:53:41.579Z,15.94
2023-05-01T17:56:09.050Z,15.88
2023-05-01T17:58:37.161Z,15.82
2023-05-01T18:01:04.733Z,15.77
2023-05-01T18:03:32.873Z,15.74
2023-05-01T18:06:01.027Z,15.73
2023-05-01T18:08:27.685Z,15.74
2023-05-01T18:10:54.379Z,15.67
2023-05-01T18:13:27.851Z,15.61
2023-05-01T18:15:56.209Z,15.54
2023-05-01T18:18:22.987Z,15.51
2023-05-01T18:20:49.698Z,15.47
2023-05-01T18:23:18.376Z,15.42
2023-05-01T18:25:45.217Z,15.37
2023-05-01T18:28:12.289Z,15.35
2023-05-01T18:30:39.005Z,15.23
2023-05-01T18:33:07.031Z,15.05
2023-05-01T18:35:33.822Z,14.82
2023-05-01T18:38:00.468Z,14.28
2023-05-01T18:40:27.346Z,14.16
2023-05-01T18:42:54.223Z,13.95
2023-05-01T18:45:21.108Z,13.80
2023-05-01T18:47:48.073Z,13.79
2023-05-01T18:50:21.541Z,14.04
2023-05-01T18:52:48.738Z,14.30
2023-05-01T18:55:15.574Z,14.32
2023-05-01T18:57:43.718Z,14.25
2023-05-01T19:00:11.057Z,14.08
2023-05-01T19:02:37.955Z,14.15
2023-05-01T19:05:05.099Z,14.14
2023-05-01T19:07:33.171Z,14.04
2023-05-01T19:10:00.114Z,13.62
2023-05-01T19:12:27.121Z,13.27
2023-05-01T19:14:53.869Z,13.10
2023-05-01T19:17:20.666Z,13.10
2023-05-01T19:19:47.306Z,13.29
2023-05-01T19:22:14.056Z,13.35
2023-05-01T19:24:42.136Z,13.19
2023-05-01T19:27:08.807Z,12.98
2023-05-01T19:29:35.446Z,12.82
2023-05-01T19:32:02.158Z,12.92
2023-05-01T19:34:29.062Z,12.84
2023-05-01T19:37:00.233Z,12.52
2023-05-01T19:39:27.138Z,12.39
2023-05-01T19:41:55.332Z,12.23
2023-05-01T19:44:22.197Z,12.12
2023-05-01T19:46:49.117Z,12.04
2023-05-01T19:49:15.862Z,12.13
2023-05-01T19:51:42.508Z,12.12
2023-05-01T19:54:09.148Z,12.28
2023-05-01T19:56:35.841Z,12.54
2023-05-01T19:59:03.904Z,12.65
2023-05-01T20:01:31.443Z,12.91
2023-05-01T20:03:58.159Z,12.99
2023-05-01T20:06:24.972Z,12.90
2023-05-01T20:08:51.896Z,12.78
2023-05-01T20:11:18.837Z,12.80
2023-05-01T20:13:45.961Z,12.77
2023-05-01T20:16:14.102Z,12.72
2023-05-01T20:18:40.857Z,12.75
2023-05-01T20:21:07.911Z,12.70
2023-05-01T20:23:34.942Z,12.63
2023-05-01T20:26:01.765Z,12.59
2023-05-01T20:28:28.584Z,12.52
2023-05-01T20:30:55.588Z,12.42
2023-05-01T20:33:23.790Z,12.36
2023-05-01T20:35:51.405Z,11.87
2023-05-01T20:38:18.209Z,11.65
2023-05-01T20:40:44.967Z,11.46
2023-05-01T20:43:11.915Z,11.44
2023-05-01T20:45:39.460Z,11.54
2023-05-01T20:48:06.551Z,11.39
2023-05-01T20:50:36.009Z,11.26
2023-05-01T20:53:02.710Z,11.16
2023-05-01T20:55:29.938Z,11.14
2023-05-01T20:57:56.628Z,11.23
2023-05-01T21:00:23.348Z,11.30
2023-05-01T21:02:51.950Z,11.49
2023-05-01T21:05:18.781Z,11.47
2023-05-01T21:07:46.912Z,11.53
2023-05-01T21:10:16.597Z,11.44
2023-05-01T21:12:43.538Z,11.28
2023-05-01T21:15:11.599Z,11.24
2023-05-01T21:17:39.563Z,11.19
2023-05-01T21:20:11.146Z,11.27
2023-05-01T21:22:39.510Z,11.16
2023-05-01T21:25:08.801Z,11.11
2023-05-01T21:27:39.195Z,11.20
2023-05-01T21:30:06.484Z,11.33
2023-05-01T21:32:34.300Z,11.34
2023-05-01T21:35:01.249Z,11.36
2023-05-01T21:37:27.984Z,11.38
2023-05-01T21:39:54.622Z,11.35
2023-05-01T21:42:22.713Z,11.27
2023-05-01T21:44:49.448Z,11.21
2023-05-01T21:47:16.150Z,11.06
2023-05-01T21:49:42.884Z,11.02
2023-05-01T21:52:09.580Z,10.79
2023-05-01T21:54:36.826Z,10.76
2023-05-01T21:57:07.545Z,10.59
2023-05-01T21:59:37.647Z,10.51
2023-05-01T22:02:04.678Z,10.65
2023-05-01T22:04:31.554Z,10.61
2023-05-01T22:06:58.210Z,10.53
2023-05-01T22:09:24.878Z,10.24
2023-05-01T22:11:51.556Z,10.03
2023-05-01T22:14:18.920Z,10.16
2023-05-01T22:16:47.144Z,10.26
2023-05-01T22:19:14.034Z,10.28
2023-05-01T22:21:40.767Z,10.30
2023-05-01T22:24:07.418Z,10.26
2023-05-01T22:26:34.641Z,10.30
2023-05-01T22:29:01.341Z,10.32
2023-05-01T22:31:28.118Z,10.33
2023-05-01T22:33:56.616Z,10.28
2023-05-01T22:36:23.442Z,10.20
2023-05-01T22:38:50.036Z,10.12
2023-05-01T22:41:16.705Z,10.05
2023-05-01T22:43:43.320Z,9.88
2023-05-01T22:46:10.004Z,9.90
2023-05-01T22:48:36.749Z,9.98
2023-05-01T22:51:04.902Z,10.03
2023-05-01T22:53:31.639Z,10.00
2023-05-01T22:55:58.301Z,10.04
2023-05-01T22:58:24.980Z,10.09
2023-05-01T23:00:51.698Z,10.23
2023-05-01T23:03:18.478Z,10.29
2023-05-01T23:05:45.365Z,10.27
2023-05-01T23:08:13.404Z,10.18
2023-05-01T23:10:40.730Z,10.02
2023-05-01T23:13:08.412Z,10.01
2023-05-01T23:15:36.278Z,10.04
2023-05-01T23:18:03.299Z,10.28
2023-05-01T23:20:30.081Z,10.32
2023-05-01T23:22:57.018Z,10.25
2023-05-01T23:25:26.134Z,10.03
2023-05-01T23:27:54.205Z,9.98
2023-05-01T23:30:21.759Z,9.92
2023-05-01T23:32:48.958Z,9.87
2023-05-01T23:35:18.914Z,9.88
2023-05-01T23:37:45.626Z,9.81
2023-05-01T23:40:12.495Z,9.76
2023-05-01T23:42:40.717Z,9.65
2023-05-01T23:45:08.209Z,9.64
2023-05-01T23:47:34.996Z,9.59
2023-05-01T23:50:02.522Z,9.55
2023-05-01T23:52:29.443Z,9.67
2023-05-01T23:54:56.161Z,9.90
2023-05-01T23:57:22.806Z,9.98
2023-05-01T23:59:51.209Z,9.86
